Time;durP1;ratioP1;P1;durP2;ratioP2;P2;SDS_P1;SDS_P2;PMS_P1;PMS_P2;Temp;Humidity;BMP_temperature;BMP_pressure;BME280_temperature;BME280_humidity;BME280_pressure;Samples;Min_cycle;Max_cycle;Signal;HPM_P1;HPM_P2
2022/02/05 00:00:53;;;;;;;31.17;16.37;;;;;;;-5.75;65.53;100608.64;1717606;83;21070;-67
2022/02/05 00:03:29;;;;;;;26.48;13.93;;;;;;;-5.68;65.57;100614.06;1717294;82;21529;-66
2022/02/05 00:05:59;;;;;;;25.52;14.33;;;;;;;-5.66;65.50;100623.81;1716979;82;21023;-68
2022/02/05 00:13:59;;;;;;;26.97;14.87;;;;;;;-5.53;65.68;100611.73;1717437;82;21074;-67
2022/02/05 00:19:53;;;;;;;27.27;15.55;;;;;;;-5.50;65.59;100605.73;1713721;82;20967;-67
2022/02/05 00:43:11;;;;;;;26.12;13.60;;;;;;;-5.22;65.85;100571.28;1717525;82;21019;-68
2022/02/05 00:45:43;;;;;;;27.60;15.23;;;;;;;-5.23;65.89;100568.36;1717949;82;21506;-67
2022/02/05 00:48:09;;;;;;;25.70;14.63;;;;;;;-5.26;66.00;100561.34;1717056;82;21150;-68
2022/02/05 00:50:40;;;;;;;26.90;14.43;;;;;;;-5.31;66.10;100546.66;1717590;82;20956;-68
2022/02/05 00:53:11;;;;;;;25.48;14.45;;;;;;;-5.33;66.18;100544.67;1717019;82;21101;-68
2022/02/05 00:55:36;;;;;;;24.35;13.72;;;;;;;-5.35;66.30;100557.05;1710824;82;21008;-67
2022/02/05 00:58:05;;;;;;;30.35;16.80;;;;;;;-5.34;66.39;100557.38;1701944;84;20981;-67
2022/02/05 01:00:35;;;;;;;30.52;16.17;;;;;;;-5.28;66.44;100558.06;1702599;84;21174;-67
2022/02/05 01:03:01;;;;;;;26.25;16.27;;;;;;;-5.17;66.51;100556.48;1702423;84;21249;-66
2022/02/05 01:05:28;;;;;;;28.52;16.90;;;;;;;-5.03;66.57;100557.72;1702307;84;21019;-66
2022/02/05 01:07:56;;;;;;;30.12;16.52;;;;;;;-4.91;66.48;100562.16;1702642;84;21598;-66
2022/02/05 01:10:26;;;;;;;31.57;17.32;;;;;;;-4.84;66.51;100557.45;1702584;84;21057;-66
2022/02/05 01:12:58;;;;;;;29.63;17.00;;;;;;;-4.70;66.54;100557.38;1702563;84;21134;-66
2022/02/05 01:15:25;;;;;;;28.23;16.35;;;;;;;-4.55;66.56;100559.69;1701678;84;21112;-66
2022/02/05 01:17:56;;;;;;;29.65;16.67;;;;;;;-4.41;66.57;100550.92;1702022;84;21040;-66
2022/02/05 01:23:06;;;;;;;31.07;16.20;;;;;;;-4.14;66.48;100551.97;1702410;82;21431;-67
2022/02/05 01:25:36;;;;;;;32.15;17.87;;;;;;;-4.08;66.38;100543.97;1702133;84;21143;-66
2022/02/05 01:28:09;;;;;;;34.03;18.10;;;;;;;-4.07;66.37;100541.21;1702070;83;21016;-66
2022/02/05 01:30:37;;;;;;;29.40;17.23;;;;;;;-3.96;66.43;100537.45;1701176;84;21550;-66
2022/02/05 01:33:08;;;;;;;29.18;16.40;;;;;;;-3.85;66.33;100533.23;1700275;84;21098;-67
2022/02/05 01:49:19;;;;;;;28.77;16.62;;;;;;;-3.54;65.62;100536.47;1702482;83;21067;-67
2022/02/05 01:52:00;;;;;;;31.93;16.93;;;;;;;-3.51;65.44;100537.94;1700828;84;21139;-66
2022/02/05 01:56:48;;;;;;;30.57;16.90;;;;;;;-3.37;65.25;100541.16;1702834;84;21110;-67
2022/02/05 02:12:21;;;;;;;28.50;15.72;;;;;;;-3.51;64.47;100537.45;1702705;84;21471;-66
2022/02/05 02:15:03;;;;;;;28.17;16.82;;;;;;;-3.61;64.58;100532.89;1702113;82;20982;-67
2022/02/05 02:22:44;;;;;;;26.35;15.28;;;;;;;-3.74;64.87;100520.83;1663240;86;21040;-67
2022/02/05 02:28:17;;;;;;;26.27;14.85;;;;;;;-3.60;64.91;100514.44;1702681;84;21557;-67
2022/02/05 02:30:40;;;;;;;27.15;15.38;;;;;;;-3.55;64.76;100516.08;1700271;82;21319;-67
2022/02/05 02:33:12;;;;;;;32.45;16.07;;;;;;;-3.49;64.80;100524.20;1701612;82;21071;-67
2022/02/05 02:35:36;;;;;;;27.25;15.83;;;;;;;-3.42;64.73;100518.64;1697226;82;20984;-67
2022/02/05 02:38:08;;;;;;;28.98;16.87;;;;;;;-3.39;64.60;100524.84;1702187;83;21103;-67
2022/02/05 02:40:40;;;;;;;26.60;15.58;;;;;;;-3.34;64.53;100515.53;1701448;83;21028;-67
2022/02/05 02:43:04;;;;;;;26.52;16.40;;;;;;;-3.28;64.47;100526.30;1700828;84;21168;-67
2022/02/05 02:45:26;;;;;;;29.05;16.23;;;;;;;-3.27;64.41;100524.81;1701693;82;20968;-67
2022/02/05 02:47:54;;;;;;;28.35;16.23;;;;;;;-3.20;64.36;100519.73;1702542;82;21031;-66
2022/02/05 02:58:07;;;;;;;24.87;15.70;;;;;;;-2.99;63.99;100500.91;1702566;84;21723;-67
2022/02/05 03:00:32;;;;;;;24.05;14.68;;;;;;;-3.04;63.97;100501.89;1702217;83;20960;-67
2022/02/05 03:03:01;;;;;;;25.72;15.30;;;;;;;-3.13;64.05;100496.68;1702502;84;21095;-66
2022/02/05 03:05:27;;;;;;;24.00;14.03;;;;;;;-3.11;64.14;100493.42;1702546;83;21031;-67
2022/02/05 03:07:57;;;;;;;24.27;15.10;;;;;;;-3.17;64.16;100490.17;1697985;82;21188;-67
2022/02/05 03:10:23;;;;;;;26.65;15.20;;;;;;;-3.23;64.30;100490.84;1702554;82;21020;-67
2022/02/05 03:12:50;;;;;;;27.62;16.65;;;;;;;-3.23;64.44;100486.92;1702547;82;21024;-67
2022/02/05 03:15:20;;;;;;;25.68;15.43;;;;;;;-3.17;64.55;100474.99;1702634;84;21111;-68
2022/02/05 03:18:02;;;;;;;26.25;16.20;;;;;;;-3.12;64.57;100469.59;1702258;83;21044;-67
2022/02/05 03:20:22;;;;;;;25.45;15.72;;;;;;;-3.08;64.66;100469.57;1704015;82;21110;-67
2022/02/05 03:22:50;;;;;;;23.80;14.85;;;;;;;-2.93;64.75;100467.06;1717349;82;21011;-67
2022/02/05 03:25:16;;;;;;;26.62;16.00;;;;;;;-2.83;64.68;100464.20;1717695;82;21027;-67
2022/02/05 03:27:44;;;;;;;26.68;16.67;;;;;;;-2.72;64.60;100470.38;1717562;83;21086;-67
2022/02/05 03:30:13;;;;;;;25.62;16.40;;;;;;;-2.65;64.50;100471.31;1717109;82;20941;-66
2022/02/05 03:32:40;;;;;;;26.15;15.60;;;;;;;-2.60;64.43;100470.31;1717596;82;21164;-67
2022/02/05 03:35:07;;;;;;;26.50;16.07;;;;;;;-2.52;64.34;100464.20;1717611;82;21117;-66
2022/02/05 03:37:34;;;;;;;23.73;14.87;;;;;;;-2.49;64.23;100465.66;1717800;82;21058;-67
2022/02/05 03:40:01;;;;;;;28.17;16.10;;;;;;;-2.54;64.15;100464.05;1717584;82;21003;-68
2022/02/05 03:42:28;;;;;;;27.60;15.60;;;;;;;-2.64;64.16;100467.70;1717681;82;21490;-67
2022/02/05 03:44:56;;;;;;;22.05;13.60;;;;;;;-2.69;64.29;100471.84;1717614;82;21007;-67
2022/02/05 03:47:23;;;;;;;25.80;15.45;;;;;;;-2.74;64.34;100461.06;1717435;83;21066;-68
2022/02/05 03:49:51;;;;;;;27.52;17.30;;;;;;;-2.82;64.44;100462.44;1717387;82;21024;-68
2022/02/05 03:52:18;;;;;;;26.90;15.75;;;;;;;-2.87;64.56;100466.36;1717441;82;21031;-67
2022/02/05 03:54:45;;;;;;;27.77;15.83;;;;;;;-2.85;64.52;100466.20;1717592;82;20959;-67
2022/02/05 03:57:12;;;;;;;24.90;14.58;;;;;;;-2.84;64.55;100463.41;1717819;82;22246;-67
2022/02/05 03:59:40;;;;;;;25.48;16.45;;;;;;;-2.77;64.57;100458.30;1716650;82;20959;-67
2022/02/05 04:02:06;;;;;;;23.77;15.25;;;;;;;-2.69;64.55;100458.27;1717428;82;21019;-67
2022/02/05 04:04:33;;;;;;;26.65;16.67;;;;;;;-2.62;64.45;100460.51;1717470;82;21058;-67
2022/02/05 04:07:01;;;;;;;26.65;16.35;;;;;;;-2.57;64.35;100455.24;1717380;83;21093;-67
2022/02/05 04:09:39;;;;;;;26.00;16.17;;;;;;;-2.53;64.29;100463.89;1717714;82;21200;-67
2022/02/05 04:17:22;;;;;;;26.62;15.68;;;;;;;-2.28;64.04;100449.32;1664084;82;21522;-67
2022/02/05 04:19:51;;;;;;;23.87;15.43;;;;;;;-2.18;63.97;100450.70;1716383;82;21555;-66
2022/02/05 04:22:17;;;;;;;23.80;14.18;;;;;;;-2.12;63.80;100450.00;1704993;82;21826;-67
2022/02/05 04:24:44;;;;;;;25.85;15.40;;;;;;;-2.06;63.67;100445.06;1702822;82;21544;-66
2022/02/05 04:27:10;;;;;;;24.87;15.00;;;;;;;-2.13;63.46;100441.84;1702970;84;21526;-67
2022/02/05 04:29:37;;;;;;;25.12;15.25;;;;;;;-2.18;63.45;100444.16;1702829;82;21493;-67
2022/02/05 04:32:07;;;;;;;24.30;15.55;;;;;;;-2.24;63.45;100447.47;1703047;84;21433;-69
2022/02/05 04:34:34;;;;;;;29.18;16.15;;;;;;;-2.32;63.55;100443.63;1702657;82;21146;-67
2022/02/05 04:37:03;;;;;;;24.32;14.75;;;;;;;-2.36;63.67;100442.36;1702849;82;21054;-67
2022/02/05 04:39:29;;;;;;;22.70;14.30;;;;;;;-2.32;63.80;100437.59;1702708;84;20994;-67
2022/02/05 04:42:06;;;;;;;27.13;15.10;;;;;;;-2.31;63.83;100436.09;1702651;82;21572;-67
2022/02/05 04:44:50;;;;;;;23.42;14.20;;;;;;;-2.32;63.83;100428.43;1701372;82;20971;-67
2022/02/05 04:52:44;;;;;;;22.85;14.28;;;;;;;-2.15;63.90;100431.22;1707277;82;21070;-68
2022/02/05 04:57:38;;;;;;;22.42;14.63;;;;;;;-1.90;63.70;100442.30;1717472;83;21055;-68
2022/02/05 05:02:43;;;;;;;23.38;14.40;;;;;;;-1.76;63.46;100440.18;1717368;82;21071;-68
2022/02/05 05:05:17;;;;;;;23.07;14.18;;;;;;;-1.69;63.31;100441.09;1713374;82;20983;-68
2022/02/05 05:15:39;;;;;;;21.12;13.43;;;;;;;-1.52;62.84;100421.27;1717293;82;21054;-68
2022/02/05 05:20:54;;;;;;;18.50;11.80;;;;;;;-1.39;62.48;100422.75;1717603;82;20995;-68
2022/02/05 05:23:21;;;;;;;20.12;12.65;;;;;;;-1.33;62.34;100427.27;1717397;82;21023;-68
2022/02/05 05:25:51;;;;;;;21.48;12.73;;;;;;;-1.20;61.86;100417.45;1717640;83;21913;-68
2022/02/05 05:28:19;;;;;;;19.82;12.45;;;;;;;-1.10;61.77;100425.03;1717431;82;21113;-68
2022/02/05 05:30:45;;;;;;;24.80;12.53;;;;;;;-1.10;61.77;100425.03;1715969;82;21046;-68
2022/02/05 05:33:12;;;;;;;19.92;12.35;;;;;;;-1.04;61.67;100424.30;1717625;82;20971;-67
2022/02/05 05:35:38;;;;;;;19.25;11.63;;;;;;;-0.94;61.47;100424.81;1716457;82;21011;-67
2022/02/05 05:38:05;;;;;;;18.02;11.40;;;;;;;-0.90;61.16;100421.32;1710124;82;21115;-68
2022/02/05 05:40:32;;;;;;;19.23;12.13;;;;;;;-0.91;61.03;100426.27;1668637;84;21545;-68
2022/02/05 05:43:05;;;;;;;21.05;12.18;;;;;;;-0.86;60.92;100422.57;1703001;84;21703;-68
2022/02/05 05:45:50;;;;;;;18.62;11.00;;;;;;;-0.83;60.75;100428.25;1668572;84;21173;-68
2022/02/05 05:48:14;;;;;;;19.53;12.03;;;;;;;-0.83;60.57;100428.75;1699061;83;21077;-67
2022/02/05 05:53:14;;;;;;;19.48;12.88;;;;;;;-0.87;60.60;100425.70;1665580;84;21094;-68
2022/02/05 05:55:47;;;;;;;22.00;12.15;;;;;;;-0.79;60.55;100420.83;1663272;84;21011;-67
2022/02/05 05:58:15;;;;;;;20.48;12.03;;;;;;;-1.28;61.29;100422.81;1702588;84;21063;-68
2022/02/05 06:00:42;;;;;;;18.42;11.30;;;;;;;-1.33;61.60;100414.67;1702676;84;21503;-68
2022/02/05 06:03:09;;;;;;;19.60;12.50;;;;;;;-1.32;61.57;100412.36;1702351;82;21718;-68
2022/02/05 06:05:37;;;;;;;19.17;12.10;;;;;;;-0.76;60.56;100413.90;1702562;84;21011;-67
2022/02/05 06:08:05;;;;;;;19.02;11.78;;;;;;;-0.61;60.09;100418.60;1702400;82;21495;-68
2022/02/05 06:10:33;;;;;;;21.62;12.45;;;;;;;-0.54;59.81;100414.73;1702514;84;21039;-68
2022/02/05 06:13:01;;;;;;;20.32;12.37;;;;;;;-0.47;59.57;100411.16;1702505;84;21551;-67
2022/02/05 06:15:29;;;;;;;20.82;11.88;;;;;;;-0.42;59.34;100403.24;1702635;84;21946;-68
2022/02/05 06:17:55;;;;;;;18.77;12.07;;;;;;;-0.38;59.13;100394.80;1702346;82;21083;-67
2022/02/05 06:20:24;;;;;;;18.52;12.03;;;;;;;-0.36;58.95;100394.11;1702585;82;21685;-67
2022/02/05 06:22:51;;;;;;;18.00;11.65;;;;;;;-0.32;58.84;100389.30;1702524;84;21135;-67
2022/02/05 06:25:17;;;;;;;19.07;11.75;;;;;;;-0.30;58.78;100388.59;1702698;82;20965;-68
2022/02/05 06:27:44;;;;;;;22.15;11.88;;;;;;;-0.31;58.64;100389.09;1702550;84;21513;-69
2022/02/05 06:30:12;;;;;;;19.02;12.10;;;;;;;-0.28;58.74;100390.03;1702482;84;21063;-69
2022/02/05 06:32:41;;;;;;;18.60;11.80;;;;;;;-0.20;58.69;100384.33;1702590;82;21534;-69
2022/02/05 06:35:09;;;;;;;19.52;12.33;;;;;;;-0.15;58.61;100383.27;1702923;83;21041;-69
2022/02/05 06:37:40;;;;;;;21.93;12.33;;;;;;;-0.12;58.62;100372.39;1702642;84;21103;-67
2022/02/05 06:40:08;;;;;;;19.32;12.28;;;;;;;-0.06;58.55;100381.62;1702455;82;21503;-67
2022/02/05 06:42:35;;;;;;;20.25;12.63;;;;;;;-0.04;58.49;100382.73;1702751;82;21140;-68
2022/02/05 06:45:03;;;;;;;20.00;12.30;;;;;;;-0.02;58.38;100374.98;1702537;84;21110;-68
2022/02/05 06:47:30;;;;;;;17.92;11.45;;;;;;;0.02;58.35;100378.02;1702499;82;21028;-68
2022/02/05 06:49:57;;;;;;;18.73;11.73;;;;;;;0.05;58.27;100380.27;1702312;83;21031;-68
2022/02/05 06:52:24;;;;;;;16.15;10.90;;;;;;;0.08;58.22;100379.89;1702680;82;21499;-68
2022/02/05 06:54:50;;;;;;;17.98;10.98;;;;;;;0.15;58.01;100372.05;1702421;84;21578;-68
2022/02/05 06:57:17;;;;;;;18.70;11.28;;;;;;;0.17;57.97;100364.80;1702597;82;21036;-68
2022/02/05 06:59:44;;;;;;;16.23;11.10;;;;;;;0.20;57.83;100367.84;1702474;82;20980;-68
2022/02/05 07:02:11;;;;;;;21.05;11.88;;;;;;;0.23;57.81;100370.09;1702430;84;21039;-68
2022/02/05 07:04:37;;;;;;;18.87;11.57;;;;;;;0.25;57.77;100368.57;1702738;82;21138;-67
2022/02/05 07:07:04;;;;;;;16.48;10.63;;;;;;;0.27;57.76;100361.83;1702384;84;21039;-68
2022/02/05 07:09:32;;;;;;;17.75;10.53;;;;;;;0.32;57.75;100356.78;1702765;82;21059;-67
2022/02/05 07:12:00;;;;;;;17.30;11.33;;;;;;;0.32;57.77;100365.98;1702460;82;21641;-67
2022/02/05 07:14:33;;;;;;;19.70;11.90;;;;;;;0.33;57.74;100362.34;1702829;82;21017;-68
2022/02/05 07:17:06;;;;;;;17.62;10.80;;;;;;;0.34;57.81;100358.73;1701754;84;21953;-68
2022/02/05 07:19:39;;;;;;;19.10;11.38;;;;;;;0.35;57.84;100355.89;1699862;84;20968;-67
2022/02/05 07:21:54;;;;;;;17.60;11.15;;;;;;;0.40;57.86;100360.58;1698532;84;20980;-68
2022/02/05 07:24:35;;;;;;;17.30;10.58;;;;;;;0.41;57.80;100351.17;1716320;82;21015;-67
2022/02/05 07:29:40;;;;;;;16.27;10.53;;;;;;;0.45;57.75;100352.40;1716340;82;21078;-69
2022/02/05 07:32:07;;;;;;;17.20;10.58;;;;;;;0.47;57.76;100349.59;1717371;82;21428;-68
2022/02/05 07:34:37;;;;;;;16.62;10.70;;;;;;;0.51;57.72;100348.69;1710839;82;21014;-69
2022/02/05 07:37:04;;;;;;;16.12;10.30;;;;;;;0.51;57.75;100348.19;1702732;82;21518;-68
2022/02/05 07:39:39;;;;;;;16.55;10.00;;;;;;;0.54;57.81;100341.23;1702710;82;21053;-68
2022/02/05 07:42:08;;;;;;;16.12;10.43;;;;;;;0.57;57.90;100331.64;1702316;82;21142;-68
2022/02/05 07:44:34;;;;;;;15.63;10.08;;;;;;;0.63;57.94;100324.28;1703027;83;20966;-67
2022/02/05 07:47:01;;;;;;;15.48;10.18;;;;;;;0.66;57.98;100321.77;1713623;82;20996;-68
2022/02/05 07:49:35;;;;;;;17.23;10.45;;;;;;;0.70;58.02;100325.11;1670728;84;21585;-68
2022/02/05 07:51:57;;;;;;;14.95;10.23;;;;;;;0.77;58.07;100326.44;1701355;84;21020;-69
2022/02/05 07:54:23;;;;;;;18.12;10.32;;;;;;;0.85;58.12;100322.81;1702659;84;21079;-68
2022/02/05 07:56:50;;;;;;;14.93;9.63;;;;;;;0.91;58.14;100321.52;1702493;82;21056;-68
2022/02/05 07:59:18;;;;;;;15.30;10.13;;;;;;;0.94;58.21;100308.47;1702599;84;21557;-69
2022/02/05 08:01:46;;;;;;;15.28;10.08;;;;;;;0.98;58.25;100308.88;1702447;84;20988;-69
2022/02/05 08:04:13;;;;;;;18.85;10.65;;;;;;;1.00;58.34;100306.36;1702448;82;20984;-69
2022/02/05 08:06:42;;;;;;;16.85;10.43;;;;;;;1.04;58.46;100304.95;1702546;82;21157;-69
2022/02/05 08:09:17;;;;;;;16.32;10.28;;;;;;;1.10;58.64;100298.89;1702445;83;21510;-69
2022/02/05 08:11:46;;;;;;;13.93;9.63;;;;;;;1.20;58.74;100292.42;1702156;84;21065;-68
2022/02/05 08:14:11;;;;;;;17.20;10.23;;;;;;;1.27;58.78;100289.28;1702593;84;21075;-67
2022/02/05 08:19:10;;;;;;;14.58;9.90;;;;;;;1.47;58.73;100275.61;1702384;82;21168;-68
2022/02/05 08:21:37;;;;;;;15.88;10.38;;;;;;;1.60;58.58;100276.91;1702464;84;21028;-67
2022/02/05 08:24:04;;;;;;;16.30;8.93;;;;;;;1.73;58.43;100278.72;1702668;82;21048;-68
2022/02/05 08:26:32;;;;;;;17.52;10.72;;;;;;;1.83;58.29;100269.88;1702365;83;21064;-69
2022/02/05 08:29:02;;;;;;;15.03;10.58;;;;;;;1.91;58.12;100268.87;1702463;84;21031;-68
2022/02/05 08:31:31;;;;;;;19.37;10.13;;;;;;;1.96;58.05;100268.23;1702432;84;21531;-68
2022/02/05 08:33:58;;;;;;;15.83;10.23;;;;;;;1.98;58.02;100265.70;1702508;84;21553;-68
2022/02/05 08:36:25;;;;;;;16.20;10.80;;;;;;;2.02;58.09;100262.95;1714779;82;21479;-68
2022/02/05 08:38:53;;;;;;;16.10;10.53;;;;;;;2.04;58.00;100256.97;1717471;82;21485;-68
2022/02/05 08:41:20;;;;;;;16.27;10.68;;;;;;;2.01;57.99;100253.44;1717635;82;21027;-68
2022/02/05 08:43:47;;;;;;;15.40;11.00;;;;;;;2.00;58.13;100258.38;1717404;82;21556;-67
2022/02/05 08:46:14;;;;;;;19.73;11.90;;;;;;;2.01;58.20;100259.22;1713676;82;21039;-68
2022/02/05 08:48:40;;;;;;;15.48;10.08;;;;;;;2.02;58.25;100255.05;1717414;82;21074;-67
2022/02/05 08:51:08;;;;;;;17.00;11.28;;;;;;;2.04;58.29;100253.50;1709715;82;21053;-67
2022/02/05 08:53:35;;;;;;;16.30;11.03;;;;;;;2.00;58.28;100249.16;1702821;82;21476;-68
2022/02/05 08:56:01;;;;;;;16.25;10.23;;;;;;;2.01;58.36;100253.44;1708900;82;21697;-68
2022/02/05 08:58:28;;;;;;;16.15;10.25;;;;;;;2.04;58.41;100248.23;1717580;82;21086;-68
2022/02/05 09:03:34;;;;;;;16.40;10.85;;;;;;;2.03;58.53;100236.89;1666362;82;21003;-68
2022/02/05 09:05:57;;;;;;;14.20;9.50;;;;;;;1.99;58.68;100234.89;1716743;82;21042;-68
2022/02/05 09:08:35;;;;;;;14.50;9.80;;;;;;;1.94;58.84;100231.58;1717330;82;21540;-68
2022/02/05 09:16:15;;;;;;;14.23;9.70;;;;;;;1.87;59.25;100238.16;1717252;82;21241;-67
2022/02/05 09:18:43;;;;;;;14.13;9.75;;;;;;;1.92;59.34;100235.44;1717448;82;21018;-68
2022/02/05 09:21:09;;;;;;;14.50;9.70;;;;;;;1.95;59.39;100229.23;1717705;82;21123;-69
2022/02/05 09:23:42;;;;;;;14.07;9.70;;;;;;;1.99;59.47;100223.04;1717117;82;21420;-69
2022/02/05 09:26:08;;;;;;;16.15;9.95;;;;;;;2.02;59.44;100222.11;1717616;82;21059;-69
2022/02/05 09:28:36;;;;;;;16.97;10.28;;;;;;;2.04;59.45;100214.83;1717261;82;21019;-69
2022/02/05 09:31:24;;;;;;;13.43;10.05;;;;;;;2.03;59.51;100218.45;1717849;82;21008;-69
2022/02/05 09:33:35;;;;;;;17.52;10.38;;;;;;;2.09;59.60;100214.98;1713273;82;21142;-70
2022/02/05 09:36:01;;;;;;;15.18;10.63;;;;;;;2.16;59.56;100207.05;1717728;82;21047;-68
2022/02/05 09:38:27;;;;;;;14.95;10.08;;;;;;;2.22;59.53;100204.90;1717339;82;21019;-68
2022/02/05 09:40:54;;;;;;;13.88;9.75;;;;;;;2.27;59.48;100195.03;1717601;82;20983;-68
2022/02/05 09:43:25;;;;;;;14.90;10.30;;;;;;;2.30;59.49;100195.93;1717372;82;21094;-68
2022/02/05 09:45:51;;;;;;;15.53;10.48;;;;;;;2.33;59.45;100191.05;1706930;83;21498;-69
2022/02/05 09:48:18;;;;;;;17.52;11.63;;;;;;;2.35;59.43;100187.70;1702200;84;21701;-69
2022/02/05 09:50:47;;;;;;;17.02;10.50;;;;;;;2.37;59.40;100190.62;1702270;82;21024;-68
2022/02/05 09:53:15;;;;;;;17.62;11.60;;;;;;;2.39;59.42;100181.48;1702337;84;21072;-68
2022/02/05 09:55:44;;;;;;;14.53;10.50;;;;;;;2.40;59.39;100173.87;1702451;84;21463;-69
2022/02/05 09:58:11;;;;;;;15.70;10.08;;;;;;;2.41;59.40;100167.59;1701733;82;21548;-67
2022/02/05 10:00:38;;;;;;;16.60;11.33;;;;;;;2.41;59.41;100171.55;1702609;84;20984;-69
2022/02/05 10:03:25;;;;;;;17.90;11.40;;;;;;;2.39;59.54;100173.58;1702383;84;21043;-69
2022/02/05 10:06:05;;;;;;;17.65;11.83;;;;;;;2.43;59.60;100169.49;1702331;84;21008;-68
2022/02/05 10:08:37;;;;;;;14.98;10.45;;;;;;;2.47;59.64;100171.19;1700096;82;21141;-70
2022/02/05 10:11:07;;;;;;;16.52;11.12;;;;;;;2.47;59.60;100168.07;1717793;82;21187;-69
2022/02/05 10:13:33;;;;;;;19.52;12.00;;;;;;;2.48;59.65;100169.67;1716239;82;21032;-67
2022/02/05 10:16:00;;;;;;;19.85;12.53;;;;;;;2.52;59.71;100159.51;1717568;82;20967;-69
2022/02/05 10:18:39;;;;;;;19.00;12.25;;;;;;;2.55;59.70;100167.80;1716882;82;21047;-67
2022/02/05 10:21:24;;;;;;;17.07;11.45;;;;;;;2.55;59.68;100166.48;1702793;82;21108;-69
2022/02/05 10:24:07;;;;;;;17.50;11.43;;;;;;;2.52;59.68;100165.58;1702825;82;21110;-69
2022/02/05 10:26:42;;;;;;;18.73;12.53;;;;;;;2.51;59.81;100163.98;1702373;82;21530;-68
2022/02/05 10:29:15;;;;;;;19.95;13.00;;;;;;;2.55;59.92;100165.67;1702244;82;21113;-68
2022/02/05 10:32:16;;;;;;;19.87;12.43;;;;;;;2.58;59.92;100159.47;1703190;82;21030;-68
2022/02/05 10:35:00;;;;;;;19.05;12.80;;;;;;;2.61;59.98;100158.23;1703153;82;20983;-68
2022/02/05 10:37:28;;;;;;;18.32;12.33;;;;;;;2.65;60.01;100152.02;1701972;82;21174;-68
2022/02/05 10:45:17;;;;;;;18.42;12.50;;;;;;;2.76;59.98;100148.67;1615506;88;21015;-68
2022/02/05 10:47:59;;;;;;;19.10;12.75;;;;;;;2.77;60.00;100141.08;1616012;86;21068;-68
2022/02/05 10:50:31;;;;;;;17.52;12.70;;;;;;;2.77;60.00;100137.12;1667433;82;21627;-69
2022/02/05 10:53:11;;;;;;;20.23;12.70;;;;;;;2.77;59.99;100137.12;1712371;82;21042;-69
2022/02/05 10:55:50;;;;;;;18.62;12.85;;;;;;;2.76;60.02;100136.80;1717138;82;21153;-67
2022/02/05 11:05:51;;;;;;;17.87;12.68;;;;;;;2.84;60.25;100106.22;1717517;82;21521;-67
2022/02/05 11:08:22;;;;;;;19.85;12.95;;;;;;;2.90;60.28;100093.48;1717674;82;20948;-67
2022/02/05 11:13:54;;;;;;;19.00;13.25;;;;;;;2.96;60.21;100088.66;1717841;82;20972;-67
2022/02/05 11:18:54;;;;;;;18.82;12.78;;;;;;;2.97;60.09;100075.75;1717767;82;21023;-68
2022/02/05 11:21:13;;;;;;;19.35;12.95;;;;;;;3.00;60.16;100070.04;1713248;82;21071;-68
2022/02/05 11:23:39;;;;;;;22.25;14.28;;;;;;;3.01;60.08;100075.60;1706960;82;21017;-68
2022/02/05 11:26:07;;;;;;;19.35;13.53;;;;;;;3.04;60.11;100080.44;1702875;83;21065;-68
2022/02/05 11:28:51;;;;;;;19.48;13.38;;;;;;;3.07;60.17;100066.02;1710467;82;21038;-68
2022/02/05 11:31:36;;;;;;;18.35;12.93;;;;;;;3.12;60.15;100063.50;1717361;82;21066;-68
2022/02/05 11:34:32;;;;;;;18.20;12.93;;;;;;;3.18;60.23;100059.19;1717358;82;20979;-69
2022/02/05 11:37:04;;;;;;;20.90;13.60;;;;;;;3.22;60.20;100057.72;1717511;82;21032;-68
2022/02/05 11:39:49;;;;;;;19.15;12.95;;;;;;;3.26;60.23;100049.67;1717383;82;20999;-68
2022/02/05 11:42:36;;;;;;;19.90;13.43;;;;;;;3.29;60.26;100047.88;1712904;82;21185;-69
2022/02/05 11:45:28;;;;;;;20.05;13.25;;;;;;;3.27;60.25;100047.31;1702680;82;21014;-69
2022/02/05 11:47:56;;;;;;;21.80;13.28;;;;;;;3.24;60.26;100037.20;1668914;86;21131;-69
2022/02/05 11:50:25;;;;;;;21.77;14.00;;;;;;;3.20;60.27;100043.95;1702682;84;21020;-69
2022/02/05 11:52:54;;;;;;;20.20;13.40;;;;;;;3.19;60.36;100038.36;1702320;83;21059;-68
2022/02/05 11:55:37;;;;;;;20.65;13.30;;;;;;;3.21;60.47;100036.32;1702655;84;21149;-69
2022/02/05 11:58:06;;;;;;;19.67;13.10;;;;;;;3.20;60.28;100036.03;1705306;82;21003;-69
2022/02/05 12:00:55;;;;;;;21.30;13.60;;;;;;;3.12;60.45;100033.68;1717406;82;21095;-67
2022/02/05 12:03:33;;;;;;;17.23;12.05;;;;;;;3.11;60.52;100038.16;1716982;82;21462;-68
2022/02/05 12:06:07;;;;;;;20.37;13.43;;;;;;;3.12;60.70;100038.95;1717746;82;21592;-69
2022/02/05 12:08:43;;;;;;;19.67;14.47;;;;;;;3.05;60.73;100026.64;1716017;82;21550;-69
2022/02/05 12:11:30;;;;;;;19.10;12.70;;;;;;;3.01;60.78;100011.48;1717371;82;21055;-69
2022/02/05 12:14:08;;;;;;;19.80;13.85;;;;;;;2.95;60.91;100005.77;1691440;83;20936;-68
2022/02/05 12:16:37;;;;;;;20.25;13.65;;;;;;;2.89;61.05;99999.52;1717560;82;21566;-68
2022/02/05 12:19:15;;;;;;;20.45;14.10;;;;;;;2.89;61.21;100000.84;1717408;82;20959;-68
2022/02/05 12:22:03;;;;;;;20.62;13.53;;;;;;;2.92;61.18;99998.28;1717666;82;21097;-68
2022/02/05 12:24:37;;;;;;;19.52;13.50;;;;;;;2.93;61.29;99998.56;1717264;82;20963;-68
2022/02/05 12:27:03;;;;;;;18.75;12.70;;;;;;;2.94;61.33;99997.56;1716982;82;21015;-67
2022/02/05 12:29:31;;;;;;;22.30;14.05;;;;;;;2.99;61.34;99996.38;1679715;85;21113;-67
2022/02/05 12:31:57;;;;;;;18.27;12.93;;;;;;;2.99;61.24;99983.19;1657668;85;21019;-68
2022/02/05 12:34:24;;;;;;;20.43;14.20;;;;;;;3.02;61.23;99979.59;1651857;86;21827;-68
2022/02/05 12:36:54;;;;;;;21.42;14.55;;;;;;;3.05;61.25;99977.83;1640907;86;21582;-67
2022/02/05 12:39:29;;;;;;;20.25;14.20;;;;;;;3.11;61.23;99992.50;1666248;84;21088;-69
2022/02/05 12:42:14;;;;;;;20.32;13.80;;;;;;;3.15;61.11;99996.30;1647151;86;21145;-68
2022/02/05 12:44:42;;;;;;;23.07;14.13;;;;;;;3.17;61.10;99988.45;1713003;82;21007;-68
2022/02/05 12:47:20;;;;;;;20.75;13.78;;;;;;;3.19;61.02;99987.73;1717612;82;21764;-67
2022/02/05 12:49:55;;;;;;;21.23;13.93;;;;;;;3.19;60.88;99984.27;1717428;82;20965;-68
2022/02/05 12:52:30;;;;;;;19.98;13.40;;;;;;;3.13;60.79;99990.45;1715571;82;21011;-68
2022/02/05 12:54:58;;;;;;;19.80;13.25;;;;;;;3.08;60.87;99992.94;1668786;86;21601;-68
2022/02/05 12:57:25;;;;;;;19.25;13.45;;;;;;;3.05;60.82;99992.86;1702878;82;21067;-69
2022/02/05 12:59:54;;;;;;;19.25;13.62;;;;;;;3.02;60.89;99991.46;1702813;84;21542;-67
2022/02/05 13:02:23;;;;;;;19.82;13.88;;;;;;;3.03;60.96;99985.70;1702347;84;21030;-68
2022/02/05 13:04:55;;;;;;;21.37;13.83;;;;;;;3.05;60.96;99991.53;1702803;82;21864;-67
2022/02/05 13:07:24;;;;;;;17.15;11.68;;;;;;;3.05;60.94;99985.74;1702874;84;21485;-67
2022/02/05 13:10:03;;;;;;;19.35;13.20;;;;;;;3.05;61.02;99989.70;1702470;84;21065;-69
2022/02/05 13:12:37;;;;;;;20.70;13.68;;;;;;;3.02;60.95;99986.19;1702768;82;21822;-68
2022/02/05 13:15:24;;;;;;;20.77;13.98;;;;;;;3.04;61.04;99976.75;1668577;85;21074;-68
2022/02/05 13:26:21;;;;;;;23.38;13.48;;;;;;;3.10;61.14;99961.87;1668648;85;21158;-68
2022/02/05 13:34:17;;;;;;;19.27;13.30;;;;;;;3.12;61.13;99946.60;1716911;82;20971;-67
2022/02/05 13:39:54;;;;;;;19.27;13.13;;;;;;;3.15;61.22;99942.20;1718044;82;22002;-68
2022/02/05 13:42:27;;;;;;;19.05;13.08;;;;;;;3.12;61.11;99939.48;1718077;82;21015;-68
2022/02/05 13:45:13;;;;;;;20.68;13.13;;;;;;;3.07;61.23;99945.96;1718216;82;20943;-69
2022/02/05 13:47:51;;;;;;;20.30;13.28;;;;;;;3.03;61.30;99941.64;1718304;82;21546;-67
2022/02/05 13:50:28;;;;;;;21.27;13.60;;;;;;;3.02;61.40;99955.84;1718161;82;21446;-68
2022/02/05 13:53:02;;;;;;;19.60;12.47;;;;;;;2.97;61.48;99949.13;1717923;83;21528;-68
2022/02/05 13:55:31;;;;;;;19.45;13.22;;;;;;;2.94;61.62;99946.92;1717726;83;21031;-69
2022/02/05 13:58:11;;;;;;;15.28;10.88;;;;;;;2.89;61.78;99948.09;1717662;82;21046;-67
2022/02/05 14:00:54;;;;;;;18.60;13.53;;;;;;;2.84;61.93;99948.48;1716189;82;21004;-68
2022/02/05 14:03:34;;;;;;;;;;;;;;;2.81;62.08;99949.72;1720241;82;21539;-67